Time;durP1;ratioP1;P1;durP2;ratioP2;P2;SDS_P1;SDS_P2;PMS_P1;PMS_P2;Temp;Humidity;BMP_temperature;BMP_pressure;BME280_temperature;BME280_humidity;BME280_pressure;Samples;Min_cycle;Max_cycle;Signal;HPM_P1;HPM_P2
2022/05/29 00:01:46;;;;;;;4.65;2.00;;;;;;;13.72;53.27;100035.66;5073995;28;20036;-73
2022/05/29 00:04:14;;;;;;;4.10;1.90;;;;;;;13.80;53.02;100031.50;5074150;28;20044;-75
2022/05/29 00:06:46;;;;;;;5.65;2.20;;;;;;;13.97;52.47;100036.41;5073829;28;20051;-73
2022/05/29 00:09:18;;;;;;;4.95;1.75;;;;;;;13.95;51.99;100027.66;5072652;28;20105;-75
2022/05/29 00:11:47;;;;;;;5.30;1.90;;;;;;;13.95;52.45;100027.66;5073905;28;20072;-75
2022/05/29 00:14:15;;;;;;;6.03;2.10;;;;;;;14.01;52.17;100025.34;5073742;28;20056;-74
2022/05/29 00:16:45;;;;;;;4.85;2.05;;;;;;;14.03;51.56;100023.41;5073859;28;20163;-78
2022/05/29 00:19:13;;;;;;;5.22;1.60;;;;;;;13.84;52.65;100020.44;5074181;28;20041;-75
2022/05/29 00:21:41;;;;;;;4.90;2.00;;;;;;;13.79;52.95;100016.38;5073814;28;20040;-75
2022/05/29 00:24:10;;;;;;;5.25;2.08;;;;;;;13.79;52.97;100016.38;5073905;28;20048;-75
2022/05/29 00:26:38;;;;;;;4.20;1.85;;;;;;;13.74;53.57;100016.75;5072774;28;20059;-75
2022/05/29 00:29:09;;;;;;;6.47;2.10;;;;;;;13.83;54.60;100012.53;5072302;28;20064;-75
2022/05/29 00:31:38;;;;;;;4.65;1.95;;;;;;;13.87;55.61;100011.28;5073954;28;20048;-75
2022/05/29 00:34:07;;;;;;;6.03;1.67;;;;;;;13.77;56.65;100007.63;5073244;28;20099;-74
2022/05/29 00:36:39;;;;;;;6.43;2.10;;;;;;;13.70;56.26;100008.13;5073692;28;20123;-75
2022/05/29 00:39:08;;;;;;;8.55;1.90;;;;;;;13.67;56.77;100007.47;5089095;28;20055;-75
2022/05/29 00:41:37;;;;;;;5.30;1.70;;;;;;;13.65;56.92;100004.06;5073400;28;20048;-75
2022/05/29 00:44:12;;;;;;;4.72;2.13;;;;;;;13.44;58.15;99995.84;5073378;28;20126;-75
2022/05/29 00:46:44;;;;;;;5.07;2.10;;;;;;;13.60;56.75;100001.72;5073374;28;20045;-75
2022/05/29 00:49:14;;;;;;;5.00;1.80;;;;;;;13.45;57.27;99997.56;5073606;28;20123;-75
2022/05/29 00:51:47;;;;;;;4.43;1.85;;;;;;;13.55;56.70;99995.88;5073593;28;20452;-75
2022/05/29 00:54:17;;;;;;;3.78;1.40;;;;;;;13.55;56.14;99986.97;5073285;28;20124;-75
2022/05/29 00:56:46;;;;;;;2.83;1.40;;;;;;;13.44;55.42;99985.13;5073590;28;20110;-75
2022/05/29 00:59:23;;;;;;;6.68;1.80;;;;;;;13.37;55.74;99987.41;5073436;28;20041;-75
2022/05/29 01:01:52;;;;;;;2.33;1.42;;;;;;;13.49;54.58;99982.94;5072723;28;20036;-76
2022/05/29 01:04:21;;;;;;;3.08;1.60;;;;;;;13.42;55.31;99976.38;5072976;28;20127;-75
2022/05/29 01:06:50;;;;;;;3.55;1.70;;;;;;;13.58;54.43;99976.88;5088649;28;20055;-75
2022/05/29 01:09:19;;;;;;;4.85;1.90;;;;;;;13.52;54.89;99979.19;5071728;28;20090;-74
2022/05/29 01:12:06;;;;;;;5.68;1.67;;;;;;;13.45;55.29;99976.13;5072011;28;20079;-75
2022/05/29 01:14:51;;;;;;;3.33;1.80;;;;;;;13.39;55.70;99973.91;5073436;28;20122;-75
2022/05/29 01:17:31;;;;;;;3.42;1.45;;;;;;;13.49;55.12;99977.56;5073289;28;20049;-75
2022/05/29 01:20:17;;;;;;;4.78;1.80;;;;;;;13.43;54.76;99967.34;5072720;28;20410;-75
2022/05/29 01:23:24;;;;;;;4.85;1.52;;;;;;;13.40;55.08;99978.28;5073250;28;20045;-75
2022/05/29 01:26:39;;;;;;;4.35;1.60;;;;;;;13.53;54.14;99971.03;5072731;28;20036;-75
2022/05/29 01:29:14;;;;;;;6.85;1.88;;;;;;;13.58;54.27;99966.16;5051935;28;20060;-74
2022/05/29 01:31:49;;;;;;;4.82;1.70;;;;;;;13.39;54.90;99957.81;5073198;28;20440;-75
2022/05/29 01:34:37;;;;;;;4.90;1.80;;;;;;;13.37;55.46;99967.81;5073125;28;20048;-73
2022/05/29 01:37:12;;;;;;;5.47;1.90;;;;;;;13.22;56.30;99969.84;5072890;28;20047;-75
2022/05/29 01:39:51;;;;;;;5.85;1.80;;;;;;;13.18;56.24;99968.31;5072743;28;20052;-74
2022/05/29 01:42:28;;;;;;;4.90;2.03;;;;;;;13.18;55.99;99963.81;5073080;28;20401;-74
2022/05/29 01:45:04;;;;;;;3.28;1.70;;;;;;;13.11;56.57;99973.25;5072831;28;20037;-75
2022/05/29 01:47:40;;;;;;;3.85;1.80;;;;;;;13.05;57.37;99973.75;5072968;28;20393;-74
2022/05/29 01:50:14;;;;;;;3.70;1.73;;;;;;;13.11;57.00;99983.97;5072754;28;20470;-74
2022/05/29 01:52:50;;;;;;;3.10;1.75;;;;;;;13.18;56.83;99971.84;5073020;28;20068;-74
2022/05/29 01:55:22;;;;;;;4.20;2.15;;;;;;;13.22;56.75;99977.88;5072986;28;20075;-75
2022/05/29 01:57:53;;;;;;;4.55;2.20;;;;;;;13.04;57.01;99982.75;5072680;28;20044;-79
2022/05/29 02:00:24;;;;;;;4.30;1.95;;;;;;;12.84;57.55;99981.56;5072916;28;20048;-74
2022/05/29 02:03:02;;;;;;;4.28;1.88;;;;;;;12.99;57.04;99981.38;5072697;28;20056;-73
2022/05/29 02:05:34;;;;;;;6.75;2.03;;;;;;;13.02;57.03;99984.66;5072836;28;20040;-73
2022/05/29 02:08:06;;;;;;;5.05;1.92;;;;;;;13.09;56.54;99974.34;5071559;28;20049;-74
2022/05/29 02:10:39;;;;;;;6.88;1.95;;;;;;;13.02;56.88;99971.28;5071501;28;20053;-74
2022/05/29 02:13:14;;;;;;;4.90;1.90;;;;;;;13.02;56.96;99976.63;5072249;28;20123;-73
2022/05/29 02:15:48;;;;;;;4.90;1.70;;;;;;;13.01;57.16;99972.25;5075172;28;20053;-73
2022/05/29 02:18:21;;;;;;;5.05;2.00;;;;;;;12.97;57.44;99969.94;5076435;28;20075;-73
2022/05/29 02:20:53;;;;;;;5.57;1.90;;;;;;;12.96;57.29;99969.06;5076390;28;20052;-73
2022/05/29 02:23:28;;;;;;;4.57;1.92;;;;;;;12.84;58.02;99967.31;5076383;28;20120;-73
2022/05/29 02:25:58;;;;;;;6.25;2.05;;;;;;;12.92;57.96;99964.91;5076121;28;20041;-74
2022/05/29 02:28:32;;;;;;;4.40;2.10;;;;;;;12.79;58.53;99967.63;5075869;28;20397;-73
2022/05/29 02:31:12;;;;;;;5.13;1.88;;;;;;;12.88;58.54;99960.75;5075662;28;20040;-74
2022/05/29 02:33:49;;;;;;;6.15;2.10;;;;;;;12.74;59.08;99960.91;5076166;28;20044;-73
2022/05/29 02:36:29;;;;;;;4.65;1.95;;;;;;;12.62;59.68;99951.97;5075879;28;20393;-73
2022/05/29 02:39:20;;;;;;;3.38;1.92;;;;;;;12.64;59.80;99962.53;5074477;28;20071;-74
2022/05/29 02:42:03;;;;;;;5.13;2.10;;;;;;;12.73;59.38;99952.03;5076067;28;20521;-73
2022/05/29 02:44:39;;;;;;;5.22;1.92;;;;;;;12.69;59.75;99955.06;5075675;28;20036;-73
2022/05/29 02:47:21;;;;;;;4.72;2.03;;;;;;;12.70;59.70;99951.41;5075448;28;20067;-74
2022/05/29 02:49:58;;;;;;;6.10;2.50;;;;;;;12.77;59.69;99948.16;5075825;28;20044;-73
2022/05/29 02:52:26;;;;;;;6.90;2.15;;;;;;;12.66;59.68;99949.94;5075800;28;20041;-73
2022/05/29 02:54:56;;;;;;;5.63;1.90;;;;;;;12.82;58.90;99945.13;5075067;28;20079;-74
2022/05/29 02:57:25;;;;;;;7.07;2.17;;;;;;;12.74;59.55;99950.19;5075688;28;20455;-73
2022/05/29 02:59:58;;;;;;;4.53;2.13;;;;;;;12.64;59.98;99946.50;5075489;28;20051;-73
2022/05/29 03:02:36;;;;;;;;;;;;;;;12.68;59.86;99948.84;5074802;28;20477;-73
2022/05/29 03:05:21;;;;;;;4.32;1.90;;;;;;;12.52;60.76;99948.25;5075302;28;20020;-74
2022/05/29 03:08:01;;;;;;;5.28;2.30;;;;;;;12.37;61.67;99946.72;5075565;28;20086;-74
2022/05/29 03:10:34;;;;;;;4.65;2.17;;;;;;;12.41;61.40;99935.66;5075621;28;20044;-73
2022/05/29 03:13:09;;;;;;;6.20;2.40;;;;;;;12.68;60.58;99932.78;5075237;28;20044;-73
2022/05/29 03:15:50;;;;;;;4.47;2.30;;;;;;;12.65;61.08;99929.50;5075316;28;20045;-72
2022/05/29 03:18:37;;;;;;;5.63;2.10;;;;;;;12.59;61.03;99928.97;5075082;28;20078;-73
2022/05/29 03:21:10;;;;;;;5.38;2.45;;;;;;;12.41;62.12;99924.97;5074947;28;20427;-73
2022/05/29 03:23:47;;;;;;;5.65;2.30;;;;;;;12.48;61.90;99923.56;5075301;28;20040;-72
2022/05/29 03:26:22;;;;;;;4.43;2.20;;;;;;;12.51;62.11;99923.31;5074188;28;20439;-73
2022/05/29 03:29:02;;;;;;;7.55;2.22;;;;;;;12.46;62.41;99922.81;5075112;28;20486;-73
2022/05/29 03:31:31;;;;;;;4.95;2.20;;;;;;;12.66;61.54;99923.19;5075043;28;20048;-73
2022/05/29 03:34:01;;;;;;;4.40;2.08;;;;;;;12.65;61.89;99924.16;5074788;28;20044;-73
2022/05/29 03:36:30;;;;;;;3.30;2.05;;;;;;;12.78;61.43;99932.97;5074832;28;20045;-73
2022/05/29 03:38:58;;;;;;;4.88;2.15;;;;;;;12.61;62.11;99923.50;5074461;28;20072;-76
2022/05/29 03:41:32;;;;;;;4.88;2.65;;;;;;;12.59;62.44;99917.41;5074721;28;20055;-73
2022/05/29 03:44:00;;;;;;;6.15;2.40;;;;;;;12.57;62.35;99914.84;5073310;28;20400;-76
2022/05/29 03:46:29;;;;;;;5.75;2.22;;;;;;;12.72;61.87;99917.34;5074649;28;20478;-75
2022/05/29 03:48:57;;;;;;;7.65;2.45;;;;;;;12.69;62.01;99917.59;5074533;28;20052;-79
2022/05/29 03:51:26;;;;;;;4.95;2.20;;;;;;;12.83;61.37;99920.94;5074388;28;20072;-73
2022/05/29 03:53:54;;;;;;;6.82;2.30;;;;;;;12.83;61.42;99923.59;5074544;28;20048;-75
2022/05/29 03:56:23;;;;;;;5.60;2.28;;;;;;;12.86;61.32;99930.56;5074056;28;20075;-74
2022/05/29 03:58:54;;;;;;;4.68;2.20;;;;;;;12.86;61.07;99922.53;5074511;28;20512;-73
2022/05/29 04:01:23;;;;;;;5.65;2.20;;;;;;;12.89;61.56;99917.81;5072901;28;20055;-74
2022/05/29 04:03:53;;;;;;;4.88;2.13;;;;;;;12.92;60.38;99919.38;5074325;28;20122;-75
2022/05/29 04:06:27;;;;;;;5.78;2.30;;;;;;;13.02;59.41;99925.75;5074146;28;20060;-75
2022/05/29 04:14:29;;;;;;;5.63;2.08;;;;;;;12.94;59.53;99928.19;5072861;28;20132;-74
2022/05/29 04:16:57;;;;;;;7.20;1.98;;;;;;;12.92;59.39;99931.91;5073028;28;20052;-74
2022/05/29 04:19:25;;;;;;;5.32;2.00;;;;;;;12.81;59.07;99933.56;5074130;28;20045;-74
2022/05/29 04:21:55;;;;;;;4.75;1.83;;;;;;;12.87;57.66;99937.63;5073968;28;20040;-74
2022/05/29 04:24:23;;;;;;;7.38;2.00;;;;;;;12.92;57.40;99942.63;5072349;28;20072;-74
2022/05/29 04:26:51;;;;;;;6.68;1.85;;;;;;;12.96;57.03;99931.59;5073936;28;20044;-75
2022/05/29 04:29:21;;;;;;;3.65;1.58;;;;;;;13.03;56.88;99940.88;5072587;28;20063;-74
2022/05/29 04:34:37;;;;;;;4.40;1.80;;;;;;;13.01;57.70;99929.41;5073799;28;20090;-74
2022/05/29 04:37:06;;;;;;;4.10;1.70;;;;;;;13.16;54.08;99938.97;5073527;28;20443;-75
2022/05/29 04:39:35;;;;;;;5.97;1.80;;;;;;;13.34;54.68;99935.91;5073427;28;20032;-74
2022/05/29 04:42:04;;;;;;;4.35;1.80;;;;;;;13.45;54.69;99938.59;5073337;28;20037;-75
2022/05/29 04:44:33;;;;;;;4.88;1.52;;;;;;;13.60;53.83;99937.41;5073639;28;20378;-74
2022/05/29 04:47:02;;;;;;;3.72;1.40;;;;;;;13.51;53.31;99942.63;5073325;28;20127;-76
2022/05/29 04:49:31;;;;;;;3.65;1.83;;;;;;;13.57;53.42;99942.16;5073618;28;20048;-74
2022/05/29 04:52:00;;;;;;;4.38;1.83;;;;;;;13.48;54.33;99945.56;5073565;28;20400;-74
2022/05/29 04:54:29;;;;;;;4.50;1.50;;;;;;;13.54;52.12;99956.66;5072308;28;20044;-74
2022/05/29 04:56:57;;;;;;;3.58;1.60;;;;;;;13.53;51.99;99952.28;5072998;28;20122;-75
2022/05/29 04:59:26;;;;;;;4.30;1.60;;;;;;;13.64;52.33;99944.25;5073168;28;20051;-75
2022/05/29 05:01:55;;;;;;;4.95;1.58;;;;;;;13.82;52.02;99941.13;5073385;28;20432;-74
2022/05/29 05:04:24;;;;;;;4.30;1.60;;;;;;;13.79;50.44;99946.69;5071848;28;20048;-74
2022/05/29 05:06:55;;;;;;;3.67;1.40;;;;;;;14.06;48.89;99943.66;5073295;28;20040;-74
2022/05/29 05:09:23;;;;;;;2.95;1.48;;;;;;;13.94;49.58;99934.78;5073176;28;20123;-74
2022/05/29 05:11:54;;;;;;;3.80;1.58;;;;;;;14.04;49.37;99941.13;5073250;28;20493;-74
2022/05/29 05:14:23;;;;;;;3.35;1.48;;;;;;;14.21;49.82;99929.91;5073403;28;20044;-74
2022/05/29 05:16:53;;;;;;;2.58;1.30;;;;;;;14.23;49.28;99927.09;5073004;28;20048;-74
2022/05/29 05:19:22;;;;;;;3.28;1.40;;;;;;;14.29;50.94;99924.78;5073031;28;20476;-74
2022/05/29 05:21:50;;;;;;;2.92;1.40;;;;;;;14.42;50.69;99929.13;5073113;28;20459;-74
2022/05/29 05:24:19;;;;;;;3.53;1.30;;;;;;;14.39;50.63;99924.88;5072667;28;20051;-74
2022/05/29 05:26:47;;;;;;;3.97;1.60;;;;;;;14.47;49.58;99925.13;5073179;28;20048;-74
2022/05/29 05:29:17;;;;;;;2.63;1.23;;;;;;;14.45;49.54;99923.56;5072895;28;20044;-74
2022/05/29 05:31:45;;;;;;;3.60;1.48;;;;;;;14.64;49.42;99923.75;5073131;28;20048;-74
2022/05/29 05:34:13;;;;;;;3.22;1.45;;;;;;;14.71;48.82;99929.47;5072827;28;20036;-74
2022/05/29 05:36:42;;;;;;;3.47;1.40;;;;;;;14.51;49.75;99923.91;5073037;28;20056;-74
2022/05/29 05:39:10;;;;;;;5.03;1.70;;;;;;;14.73;49.86;99928.38;5072619;28;20119;-74
2022/05/29 05:41:38;;;;;;;5.00;1.75;;;;;;;14.47;50.15;99927.81;5072634;28;20128;-74
2022/05/29 05:44:06;;;;;;;4.65;1.45;;;;;;;14.53;50.01;99921.94;5072747;28;20044;-75
2022/05/29 05:46:36;;;;;;;5.65;1.70;;;;;;;14.75;50.30;99929.09;5072683;28;20465;-74
2022/05/29 05:49:04;;;;;;;5.00;1.48;;;;;;;14.96;48.00;99917.53;5073732;28;20101;-74
2022/05/29 05:51:33;;;;;;;6.78;1.60;;;;;;;15.01;48.30;99909.97;5076898;28;20041;-74
2022/05/29 05:54:01;;;;;;;3.55;1.30;;;;;;;14.98;46.86;99912.91;5076816;28;20044;-74
2022/05/29 05:56:29;;;;;;;3.72;1.38;;;;;;;15.13;47.21;99907.09;5076568;28;20074;-74
2022/05/29 05:58:58;;;;;;;6.20;1.52;;;;;;;15.13;47.18;99906.22;5076715;28;20067;-74
2022/05/29 06:01:26;;;;;;;3.67;1.20;;;;;;;15.09;46.48;99916.41;5076389;28;20052;-74
2022/05/29 06:03:59;;;;;;;3.28;1.38;;;;;;;15.17;45.68;99903.16;5076702;28;20041;-74
2022/05/29 06:06:28;;;;;;;2.40;1.30;;;;;;;15.31;44.81;99904.66;5076361;28;20098;-74
2022/05/29 06:08:57;;;;;;;3.13;1.33;;;;;;;15.29;42.51;99911.16;5076525;28;20381;-74
2022/05/29 06:11:26;;;;;;;4.05;1.10;;;;;;;15.03;42.09;99908.00;5076200;28;20469;-75
2022/05/29 06:13:54;;;;;;;2.70;1.20;;;;;;;15.01;42.39;99910.81;5076132;28;20064;-74
2022/05/29 06:16:23;;;;;;;3.88;1.05;;;;;;;14.86;42.54;99914.75;5075734;28;20131;-74
2022/05/29 06:18:52;;;;;;;3.55;1.25;;;;;;;15.18;42.25;99904.03;5076046;28;20048;-74
2022/05/29 06:21:22;;;;;;;3.20;1.02;;;;;;;15.11;42.31;99910.88;5075705;28;20044;-74
2022/05/29 06:23:50;;;;;;;2.35;1.00;;;;;;;15.32;41.98;99914.44;5076414;28;20051;-74
2022/05/29 06:26:19;;;;;;;3.55;1.13;;;;;;;15.49;41.56;99910.31;5076004;28;20049;-75
2022/05/29 06:28:47;;;;;;;2.53;0.93;;;;;;;15.43;41.87;99911.69;5076221;28;20047;-75
2022/05/29 06:31:15;;;;;;;2.13;0.90;;;;;;;15.56;40.99;99905.28;5075920;28;20044;-75
2022/05/29 06:33:44;;;;;;;3.13;0.90;;;;;;;15.88;40.96;99911.41;5075856;28;20040;-75
2022/05/29 06:36:17;;;;;;;3.60;1.33;;;;;;;16.10;40.75;99904.13;5076129;28;20040;-75
2022/05/29 06:38:47;;;;;;;3.40;1.13;;;;;;;16.36;38.99;99899.97;5076016;28;20047;-75
2022/05/29 06:41:17;;;;;;;3.55;1.25;;;;;;;16.55;39.03;99912.63;5075708;28;20068;-75
2022/05/29 06:43:48;;;;;;;3.83;1.02;;;;;;;16.45;39.68;99909.91;5076105;28;20045;-75
2022/05/29 06:46:17;;;;;;;2.10;1.05;;;;;;;16.81;39.54;99905.78;5075674;28;20047;-75
2022/05/29 06:48:45;;;;;;;2.22;1.02;;;;;;;17.06;38.49;99906.19;5075853;28;20446;-75
2022/05/29 06:51:15;;;;;;;2.95;1.10;;;;;;;16.74;39.09;99906.47;5075473;28;20058;-75
2022/05/29 06:53:44;;;;;;;2.88;1.10;;;;;;;16.45;39.78;99909.06;5075778;28;20051;-75
2022/05/29 06:56:16;;;;;;;4.65;1.20;;;;;;;16.63;40.98;99901.19;5073795;28;20125;-76
2022/05/29 06:58:44;;;;;;;3.03;1.55;;;;;;;16.73;39.67;99896.69;5075920;28;20388;-75
2022/05/29 07:07:01;;;;;;;3.13;1.20;;;;;;;17.10;39.74;99897.69;5013356;28;20046;-75
2022/05/29 07:09:32;;;;;;;3.10;1.17;;;;;;;17.34;39.29;99901.78;5013068;28;20129;-75
2022/05/29 07:12:08;;;;;;;2.22;1.00;;;;;;;17.40;39.25;99895.81;5042759;28;20060;-75
2022/05/29 07:14:38;;;;;;;2.45;1.10;;;;;;;17.53;38.52;99901.75;5074085;28;20083;-75
2022/05/29 07:17:07;;;;;;;3.28;1.10;;;;;;;17.62;38.18;99898.19;5075270;28;20086;-75
2022/05/29 07:19:35;;;;;;;4.70;1.35;;;;;;;17.99;37.83;99902.78;5075023;28;20453;-74
2022/05/29 07:22:04;;;;;;;2.38;1.33;;;;;;;18.22;37.46;99900.53;5074783;28;20443;-75
2022/05/29 07:24:35;;;;;;;3.45;1.40;;;;;;;18.04;37.76;99892.38;5074932;28;20048;-75
2022/05/29 07:27:05;;;;;;;2.85;1.10;;;;;;;18.12;37.64;99895.19;5073811;28;20053;-75
2022/05/29 07:29:34;;;;;;;2.40;1.20;;;;;;;17.90;38.02;99896.41;5073535;28;20101;-75
2022/05/29 07:32:03;;;;;;;2.90;1.15;;;;;;;17.83;38.13;99892.59;5075028;28;20048;-75
2022/05/29 07:34:32;;;;;;;4.78;1.40;;;;;;;17.93;38.08;99892.56;5073325;28;20056;-75
2022/05/29 07:37:05;;;;;;;2.95;1.20;;;;;;;18.27;37.16;99888.31;5074939;28;20044;-75
2022/05/29 07:39:38;;;;;;;2.83;1.30;;;;;;;18.39;37.30;99882.69;5074591;28;20492;-76
2022/05/29 07:44:54;;;;;;;3.88;1.40;;;;;;;18.07;38.18;99889.41;5074821;28;20041;-74
2022/05/29 07:47:27;;;;;;;3.83;1.75;;;;;;;18.58;38.09;99890.66;5074385;28;20068;-74
2022/05/29 07:49:58;;;;;;;3.55;1.40;;;;;;;18.75;36.85;99884.47;5074650;28;20040;-74
2022/05/29 07:52:27;;;;;;;2.95;1.40;;;;;;;18.63;36.73;99880.28;5074133;28;20127;-75
2022/05/29 07:54:58;;;;;;;2.75;1.30;;;;;;;18.73;36.50;99870.28;5074329;28;20044;-75
2022/05/29 07:57:28;;;;;;;3.00;1.20;;;;;;;18.04;36.93;99876.19;5074040;28;20036;-74
2022/05/29 07:59:56;;;;;;;2.95;1.50;;;;;;;18.04;36.78;99873.47;5074143;28;20054;-74
2022/05/29 08:02:25;;;;;;;3.00;1.10;;;;;;;18.23;36.21;99867.13;5073930;28;20218;-74
2022/05/29 08:04:59;;;;;;;2.47;1.20;;;;;;;17.98;36.45;99874.09;5074547;28;20050;-74
2022/05/29 08:07:27;;;;;;;2.20;1.10;;;;;;;17.93;36.78;99866.44;5073842;28;20040;-74
2022/05/29 08:09:55;;;;;;;3.67;1.13;;;;;;;17.80;37.27;99865.09;5072822;28;20127;-74
2022/05/29 08:12:24;;;;;;;5.68;1.33;;;;;;;18.06;36.78;99866.13;5073630;28;20046;-74
2022/05/29 08:14:58;;;;;;;2.97;1.17;;;;;;;18.20;36.78;99862.06;5074234;28;20040;-74
2022/05/29 08:17:26;;;;;;;4.10;1.30;;;;;;;18.24;36.79;99861.63;5073828;28;20119;-74
2022/05/29 08:19:54;;;;;;;3.67;1.40;;;;;;;18.39;36.01;99861.09;5073940;28;20496;-74
2022/05/29 08:22:22;;;;;;;3.92;1.50;;;;;;;18.52;35.01;99859.72;5073369;28;20485;-75
2022/05/29 08:30:46;;;;;;;4.10;1.35;;;;;;;18.95;35.13;99846.50;5073399;28;20090;-74
2022/05/29 08:33:17;;;;;;;3.00;1.35;;;;;;;18.77;35.02;99844.63;5073883;28;20055;-74
2022/05/29 08:35:48;;;;;;;5.05;1.58;;;;;;;18.68;35.50;99850.97;5073410;28;20094;-74
2022/05/29 08:38:18;;;;;;;3.60;1.33;;;;;;;18.55;35.59;99854.03;5073740;28;20454;-74
2022/05/29 08:40:49;;;;;;;3.10;1.30;;;;;;;18.36;36.12;99850.59;5073887;28;20130;-74
2022/05/29 08:43:26;;;;;;;2.95;1.23;;;;;;;18.65;35.48;99850.44;5073678;28;20397;-74
2022/05/29 08:45:56;;;;;;;2.80;1.23;;;;;;;18.57;35.62;99845.75;5073365;28;20116;-74
2022/05/29 08:48:27;;;;;;;3.35;0.98;;;;;;;18.83;36.22;99844.03;5073329;28;20500;-74
2022/05/29 08:51:05;;;;;;;3.10;1.40;;;;;;;18.91;36.03;99835.13;5073555;28;20439;-75
2022/05/29 08:53:37;;;;;;;3.78;1.55;;;;;;;18.90;35.89;99838.00;5073300;28;20044;-74
2022/05/29 08:56:16;;;;;;;5.40;1.30;;;;;;;18.95;35.82;99835.69;5073137;28;20076;-74
2022/05/29 08:59:01;;;;;;;2.47;1.00;;;;;;;19.16;35.26;99833.47;5072877;28;20128;-75
2022/05/29 09:01:50;;;;;;;2.53;0.98;;;;;;;19.23;35.13;99841.81;5073303;28;20051;-74
2022/05/29 09:04:30;;;;;;;3.50;1.25;;;;;;;19.00;34.67;99833.34;5073336;28;20040;-74
2022/05/29 09:07:02;;;;;;;3.65;1.30;;;;;;;18.71;35.26;99834.44;5072101;28;20482;-74
2022/05/29 09:09:38;;;;;;;4.28;1.40;;;;;;;18.52;35.36;99842.66;5073022;28;20078;-74
2022/05/29 09:12:11;;;;;;;4.57;1.33;;;;;;;19.01;34.23;99841.31;5071823;28;20052;-74
2022/05/29 09:14:50;;;;;;;3.33;1.10;;;;;;;18.81;35.02;99832.50;5071626;28;20408;-74
2022/05/29 09:17:25;;;;;;;2.72;1.10;;;;;;;18.86;34.73;99837.47;5073160;28;20068;-74
2022/05/29 09:19:58;;;;;;;3.95;1.10;;;;;;;19.02;34.44;99834.91;5073353;28;20040;-74
2022/05/29 09:22:29;;;;;;;3.00;1.30;;;;;;;18.93;33.95;99835.00;5072969;28;20087;-73
2022/05/29 09:25:04;;;;;;;4.47;1.40;;;;;;;18.79;34.11;99826.41;5072495;28;20049;-75
2022/05/29 09:27:34;;;;;;;4.00;1.17;;;;;;;18.76;34.70;99820.47;5072703;28;20055;-75
2022/05/29 09:30:03;;;;;;;2.97;1.13;;;;;;;19.47;34.26;99827.59;5071776;28;20131;-74
2022/05/29 09:32:35;;;;;;;5.68;1.33;;;;;;;19.43;34.27;99827.94;5072844;28;20040;-75
2022/05/29 09:35:15;;;;;;;3.83;1.33;;;;;;;19.70;32.96;99826.94;5073056;28;20052;-75
2022/05/29 09:37:54;;;;;;;5.40;1.45;;;;;;;19.75;32.92;99812.91;5071508;28;20400;-74
2022/05/29 09:40:26;;;;;;;4.45;1.58;;;;;;;19.77;33.26;99816.31;5073253;28;20049;-75
2022/05/29 09:42:55;;;;;;;4.03;1.40;;;;;;;19.61;33.78;99818.94;5072655;28;20140;-75
2022/05/29 09:45:28;;;;;;;3.25;1.00;;;;;;;19.28;34.27;99815.13;5072926;28;20036;-75
2022/05/29 09:50:51;;;;;;;2.58;1.17;;;;;;;19.31;33.96;99804.88;5072383;28;20397;-75
2022/05/29 09:53:24;;;;;;;4.00;1.15;;;;;;;19.61;33.56;99816.25;5072947;28;20547;-75
2022/05/29 09:55:57;;;;;;;4.93;1.50;;;;;;;19.57;33.59;99814.84;5071726;28;20068;-75
2022/05/29 09:58:30;;;;;;;6.47;1.85;;;;;;;19.70;33.79;99808.00;5072597;28;20041;-75
2022/05/29 10:01:05;;;;;;;4.15;1.33;;;;;;;19.96;32.53;99807.94;5072765;28;20393;-75
2022/05/29 10:03:40;;;;;;;3.65;1.60;;;;;;;20.00;32.61;99801.19;5072255;28;20076;-75
2022/05/29 10:06:13;;;;;;;4.50;1.30;;;;;;;20.15;32.32;99804.09;5072545;28;20515;-74
2022/05/29 10:08:41;;;;;;;6.82;1.70;;;;;;;20.15;32.95;99803.25;5071129;28;20049;-73
2022/05/29 10:11:15;;;;;;;4.38;1.33;;;;;;;20.19;32.87;99808.19;5072705;28;20040;-73
2022/05/29 10:13:44;;;;;;;3.05;1.30;;;;;;;20.38;32.77;99803.50;5072491;28;20070;-73
2022/05/29 10:16:14;;;;;;;5.40;1.40;;;;;;;20.37;32.57;99796.41;5072645;28;20036;-74
2022/05/29 10:18:44;;;;;;;6.45;1.60;;;;;;;20.17;33.00;99791.28;5072418;28;20520;-75
2022/05/29 10:21:17;;;;;;;3.75;1.40;;;;;;;20.06;32.93;99793.41;5072379;28;20102;-74
2022/05/29 10:23:50;;;;;;;3.53;1.33;;;;;;;19.38;34.52;99792.38;5072013;28;20040;-75
2022/05/29 10:26:32;;;;;;;5.47;1.70;;;;;;;19.77;33.77;99788.41;5071546;28;20071;-73
2022/05/29 10:29:02;;;;;;;3.15;1.33;;;;;;;19.75;33.72;99788.56;5072655;28;20047;-73
2022/05/29 10:31:37;;;;;;;4.05;1.30;;;;;;;19.76;32.73;99792.97;5072202;28;20045;-73
2022/05/29 10:34:10;;;;;;;3.60;1.20;;;;;;;19.44;33.69;99777.41;5072666;28;20055;-75
2022/05/29 10:36:39;;;;;;;;;;;;;;;19.78;33.16;99787.38;5076019;28;20037;-73
2022/05/29 10:39:11;;;;;;;3.85;1.40;;;;;;;20.11;32.58;99799.19;5075893;28;19998;-73
2022/05/29 10:41:42;;;;;;;5.82;1.50;;;;;;;19.95;32.68;99789.16;5075834;28;20041;-73
2022/05/29 10:44:11;;;;;;;3.17;1.52;;;;;;;19.86;32.05;99785.56;5075970;28;20087;-73
2022/05/29 10:46:43;;;;;;;4.90;1.67;;;;;;;19.60;31.86;99782.09;5075597;28;20043;-73
2022/05/29 10:49:24;;;;;;;5.28;0.93;;;;;;;19.16;31.79;99782.97;5075909;28;20050;-74
2022/05/29 10:52:07;;;;;;;3.17;1.10;;;;;;;19.36;31.79;99786.28;5075380;28;20102;-74
2022/05/29 10:54:59;;;;;;;4.65;1.40;;;;;;;19.41;32.93;99786.69;5073952;28;20052;-75
2022/05/29 10:57:52;;;;;;;2.43;1.27;;;;;;;19.58;33.21;99784.94;5075396;28;20128;-73
2022/05/29 11:00:31;;;;;;;3.42;1.42;;;;;;;18.99;33.69;99774.88;5074448;28;20059;-75
2022/05/29 11:03:26;;;;;;;4.22;1.30;;;;;;;19.04;33.50;99775.28;5075589;28;20390;-75
2022/05/29 11:06:22;;;;;;;3.58;1.15;;;;;;;19.19;33.83;99780.94;5075661;28;20072;-75
2022/05/29 11:09:03;;;;;;;3.53;1.10;;;;;;;19.42;33.44;99769.44;5073819;28;20543;-75
2022/05/29 11:11:46;;;;;;;6.45;1.60;;;;;;;19.58;32.91;99774.09;5073964;28;20059;-74
2022/05/29 11:14:41;;;;;;;3.77;1.50;;;;;;;19.94;32.80;99765.81;5075124;28;20079;-75
2022/05/29 11:17:19;;;;;;;3.88;1.50;;;;;;;19.28;32.65;99767.31;5074138;28;20044;-75
2022/05/29 11:20:25;;;;;;;5.80;2.53;;;;;;;19.78;32.25;99753.06;5074806;28;20500;-74
2022/05/29 11:23:16;;;;;;;3.83;1.38;;;;;;;19.66;33.18;99760.63;5058869;28;20127;-74
2022/05/29 11:25:55;;;;;;;4.03;1.45;;;;;;;19.23;33.77;99764.25;5074816;28;20055;-74
2022/05/29 11:28:42;;;;;;;3.42;1.20;;;;;;;19.43;33.27;99765.72;5073827;28;20144;-74
2022/05/29 11:31:25;;;;;;;3.20;1.20;;;;;;;19.27;33.06;99759.38;5075156;28;20416;-74
2022/05/29 11:34:07;;;;;;;2.92;1.15;;;;;;;19.37;32.77;99755.53;5074805;28;20055;-74
2022/05/29 11:36:48;;;;;;;3.05;1.33;;;;;;;19.57;32.80;99749.94;5074741;28;20457;-74
2022/05/29 11:39:27;;;;;;;3.08;1.38;;;;;;;19.44;33.91;99745.78;5073573;28;20050;-74
2022/05/29 11:42:01;;;;;;;4.20;1.45;;;;;;;19.46;33.37;99756.44;5073275;28;20059;-74
2022/05/29 11:44:35;;;;;;;5.55;1.50;;;;;;;19.47;33.75;99746.47;5074372;28;20047;-74
2022/05/29 11:53:00;;;;;;;4.10;1.52;;;;;;;19.06;33.84;99744.38;5074466;28;20044;-74
2022/05/29 11:55:41;;;;;;;2.90;1.20;;;;;;;19.43;33.56;99743.25;5072895;28;20060;-78
2022/05/29 11:58:14;;;;;;;4.90;1.52;;;;;;;19.49;32.67;99747.16;5074545;28;20055;-74
2022/05/29 12:00:46;;;;;;;4.82;1.42;;;;;;;19.44;33.21;99751.19;5074310;28;20032;-74
2022/05/29 12:03:22;;;;;;;3.75;1.50;;;;;;;19.65;33.61;99737.28;5074222;28;20082;-74
2022/05/29 12:05:57;;;;;;;4.18;1.45;;;;;;;19.74;33.30;99732.75;5074039;28;20371;-74
2022/05/29 12:08:32;;;;;;;2.40;1.15;;;;;;;19.68;33.05;99719.88;5073924;28;20523;-74
2022/05/29 12:11:25;;;;;;;5.60;1.65;;;;;;;19.67;33.73;99729.00;5073075;28;20136;-74
2022/05/29 12:13:57;;;;;;;4.13;1.30;;;;;;;19.45;33.93;99723.13;5074040;28;20044;-74
2022/05/29 12:16:29;;;;;;;3.03;1.40;;;;;;;19.77;32.92;99713.47;5072938;28;20084;-74
2022/05/29 12:19:01;;;;;;;2.92;1.20;;;;;;;19.55;33.30;99711.34;5072574;28;20135;-74
2022/05/29 12:21:35;;;;;;;2.78;1.30;;;;;;;19.54;33.83;99717.75;5074116;28;20097;-74
2022/05/29 12:24:16;;;;;;;4.28;1.30;;;;;;;19.69;33.84;99719.72;5073851;28;20124;-74
2022/05/29 12:26:52;;;;;;;4.65;1.33;;;;;;;19.69;33.13;99721.59;5073770;28;20044;-74
2022/05/29 12:29:25;;;;;;;5.30;1.40;;;;;;;19.71;32.38;99716.84;5073862;28;20068;-74
2022/05/29 12:31:59;;;;;;;4.70;1.50;;;;;;;19.83;32.58;99725.50;5072363;28;20044;-74
2022/05/29 12:34:43;;;;;;;4.57;1.38;;;;;;;19.88;31.91;99718.63;5072415;28;20127;-74